Terminal Aerodrome Forecast
Issued by NWS El Paso, TX

Home | Current Version | Previous Version | Text Only | Print | Product List | Glossary On
Versions: 1 2 3 4 5 6 7 8 9 10 11 12
656
FTUS44 KEPZ 231730
TAFELP
TAF
KELP 231730Z 2318/2418 VRB03KT P6SM FEW250
     FM240100 17004KT P6SM FEW250
     FM241000 28005KT P6SM FEW250=

USA.gov is the U.S. government's official web portal to all federal, state and local government web resources and services.